Ada — ERJD — position and weather

sailwx.info

Track history (hours):
 
Tides and Currents Weather Stations Pressure Air Temp Water Temp Dewpoint Dewpoint Depression Visibility Wind Speed Wind Dir Waves Ship Positions

Ada

Last reported at 2014-Nov-11 19:05 UTC. Time now 2014-Nov-27 01:46 UTC.
Position N 40°60' E 028°60'.
Warning: this ship's position is 15 days out of date.

Length 73 m; draft 3.5 m.

Type: Cargo ship. MMSI: 214181004.

Date/timePositionNaut miles runAvg speedWind from/ knotsBaromVisibWave heightAir tempDewpointWater temp
2014-Nov-11 19:05N 40°60' E 028°60'3 5.8
2014-Nov-11 18:31N 40°57' E 028°58'2 1.2
2014-Nov-11 16:30N 40°59' E 028°56'0 0.0
2014-Nov-11 13:18N 40°59' E 028°56'8 2.8
2014-Nov-11 10:33N 40°53' E 029°02'7 7.5
2014-Nov-11 09:33N 40°48' E 029°10'8 7.8
2014-Nov-11 08:33N 40°45' E 029°19'  
2014-Nov-09 02:21N 40°44' E 029°43'10 1.1
2014-Nov-08 17:28N 40°45' E 029°30'8 8.7
2014-Nov-08 16:33N 40°44' E 029°20'9 8.9
2014-Nov-08 15:33N 40°48' E 029°09'8 8.4
2014-Nov-08 14:33N 40°51' E 028°59'7 2.4
2014-Nov-08 11:30N 40°58' E 028°54'0 0.0
2014-Nov-08 10:18N 40°58' E 028°54'0 0.0
2014-Nov-08 07:30N 40°58' E 028°54'0 0.1
2014-Nov-08 06:18N 40°58' E 028°54'11 0.6
2014-Nov-07 13:09N 40°58' E 028°40'  
2014-Nov-03 17:42N 40°56' E 028°55'1 7.8
2014-Nov-03 17:32N 40°57' E 028°56'35 1.8
2014-Nov-02 21:33N 41°20' E 029°32'  
Track history (hours):
 
Tides and Currents Weather Stations Pressure Air Temp Water Temp Dewpoint Dewpoint Depression Visibility Wind Speed Wind Dir Waves Ship Positions

Ada

Last reported at 2014-Nov-11 19:05 UTC. Time now 2014-Nov-27 01:46 UTC.
Position N 40°60' E 028°60'.
Warning: this ship's position is 15 days out of date.

Length 73 m; draft 3.5 m.

Type: Cargo ship. MMSI: 214181004.

Date/timePositionNaut miles runAvg speedWind from/ knotsBaromVisibWave heightAir tempDewpointWater temp
2014-Nov-11 19:05N 40°60' E 028°60'3 5.8
2014-Nov-11 18:31N 40°57' E 028°58'2 1.2
2014-Nov-11 16:30N 40°59' E 028°56'0 0.0
2014-Nov-11 13:18N 40°59' E 028°56'8 2.8
2014-Nov-11 10:33N 40°53' E 029°02'7 7.5
2014-Nov-11 09:33N 40°48' E 029°10'8 7.8
2014-Nov-11 08:33N 40°45' E 029°19'  
2014-Nov-09 02:21N 40°44' E 029°43'10 1.1
2014-Nov-08 17:28N 40°45' E 029°30'8 8.7
2014-Nov-08 16:33N 40°44' E 029°20'9 8.9
2014-Nov-08 15:33N 40°48' E 029°09'8 8.4
2014-Nov-08 14:33N 40°51' E 028°59'7 2.4
2014-Nov-08 11:30N 40°58' E 028°54'0 0.0
2014-Nov-08 10:18N 40°58' E 028°54'0 0.0
2014-Nov-08 07:30N 40°58' E 028°54'0 0.1
2014-Nov-08 06:18N 40°58' E 028°54'11 0.6
2014-Nov-07 13:09N 40°58' E 028°40'  
2014-Nov-03 17:42N 40°56' E 028°55'1 7.8
2014-Nov-03 17:32N 40°57' E 028°56'35 1.8
2014-Nov-02 21:33N 41°20' E 029°32'  

Dump ship's entire track history